createdAt,value
2023-04-04T00:01:40.524Z,1.95
2023-04-04T00:04:43.382Z,1.70
2023-04-04T00:07:47.417Z,1.40
2023-04-04T00:10:50.008Z,1.30
2023-04-04T00:13:52.515Z,1.50
2023-04-04T00:16:54.981Z,1.75
2023-04-04T00:19:58.088Z,1.48
2023-04-04T00:23:00.681Z,1.42
2023-04-04T00:26:03.552Z,1.37
2023-04-04T00:29:06.060Z,1.97
2023-04-04T00:32:08.689Z,1.23
2023-04-04T00:35:11.252Z,1.65
2023-04-04T00:38:13.789Z,1.20
2023-04-04T00:41:17.513Z,1.67
2023-04-04T00:44:20.596Z,1.30
2023-04-04T00:47:26.216Z,1.42
2023-04-04T00:50:29.421Z,1.40
2023-04-04T00:53:32.396Z,1.60
2023-04-04T00:56:39.659Z,1.52
2023-04-04T00:59:43.320Z,1.38
2023-04-04T01:02:47.505Z,1.27
2023-04-04T01:05:50.353Z,1.17
2023-04-04T01:08:55.540Z,1.20
2023-04-04T01:11:59.065Z,1.67
2023-04-04T01:15:03.426Z,1.23
2023-04-04T01:18:07.154Z,1.48
2023-04-04T01:21:17.213Z,1.40
2023-04-04T01:24:22.875Z,1.52
2023-04-04T01:27:32.835Z,1.37
2023-04-04T01:30:44.545Z,1.40
2023-04-04T01:33:55.610Z,1.20
2023-04-04T01:37:07.209Z,1.08
2023-04-04T01:40:19.736Z,1.20
2023-04-04T01:43:24.650Z,1.38
2023-04-04T01:46:27.731Z,1.40
2023-04-04T01:49:30.577Z,1.03
2023-04-04T01:52:33.208Z,1.10
2023-04-04T01:55:35.861Z,1.55
2023-04-04T01:58:39.086Z,1.33
2023-04-04T02:01:41.618Z,1.60
2023-04-04T02:04:44.330Z,1.05
2023-04-04T02:07:50.778Z,0.82
2023-04-04T02:11:05.719Z,0.75
2023-04-04T02:14:08.873Z,0.93
2023-04-04T02:17:11.940Z,1.25
2023-04-04T02:20:15.108Z,1.27
2023-04-04T02:23:17.604Z,1.30
2023-04-04T02:26:20.050Z,1.23
2023-04-04T02:29:23.496Z,1.00
2023-04-04T02:32:27.486Z,0.95
2023-04-04T02:35:30.193Z,1.70
2023-04-04T02:38:33.449Z,1.00
2023-04-04T02:41:38.597Z,1.23
2023-04-04T02:44:41.155Z,1.17
2023-04-04T02:47:52.803Z,1.23
2023-04-04T02:51:00.549Z,1.00
2023-04-04T02:54:04.210Z,1.40
2023-04-04T02:57:13.317Z,1.23
2023-04-04T03:00:16.126Z,1.13
2023-04-04T03:03:19.034Z,1.00
2023-04-04T03:06:23.463Z,0.95
2023-04-04T03:09:26.150Z,1.70
2023-04-04T03:12:28.715Z,1.08
2023-04-04T03:15:31.667Z,1.37
2023-04-04T03:18:34.819Z,0.82
2023-04-04T03:21:37.454Z,1.27
2023-04-04T03:24:40.380Z,1.33
2023-04-04T03:27:43.324Z,0.80
2023-04-04T03:30:46.025Z,0.90
2023-04-04T03:33:49.317Z,1.15
2023-04-04T03:36:53.677Z,0.87
2023-04-04T03:39:56.435Z,1.17
2023-04-04T03:42:59.138Z,1.42
2023-04-04T03:46:02.903Z,1.52
2023-04-04T03:49:05.479Z,1.15
2023-04-04T03:52:08.537Z,0.98
2023-04-04T03:55:11.418Z,1.17
2023-04-04T03:58:13.972Z,1.30
2023-04-04T04:01:16.679Z,1.27
2023-04-04T04:04:19.288Z,1.55
2023-04-04T04:07:21.878Z,1.88
2023-04-04T04:10:24.420Z,1.20
2023-04-04T04:13:27.289Z,1.38
2023-04-04T04:16:30.834Z,1.33
2023-04-04T04:19:34.724Z,1.53
2023-04-04T04:22:38.148Z,1.33
2023-04-04T04:25:40.963Z,2.58
2023-04-04T04:28:51.060Z,3.58
2023-04-04T04:32:03.360Z,3.95
2023-04-04T04:35:10.034Z,2.90
2023-04-04T04:38:14.251Z,2.75
2023-04-04T04:41:17.159Z,1.50
2023-04-04T04:44:23.368Z,1.50
2023-04-04T04:47:26.656Z,1.58
2023-04-04T04:50:29.736Z,1.80
2023-04-04T04:53:33.026Z,2.33
2023-04-04T04:56:35.751Z,2.78
2023-04-04T04:59:43.586Z,2.35
2023-04-04T05:02:48.778Z,2.25
2023-04-04T05:05:57.459Z,2.20
2023-04-04T05:09:00.241Z,1.33
2023-04-04T05:12:07.882Z,3.00
2023-04-04T05:15:17.388Z,2.78
2023-04-04T05:18:22.981Z,2.47
2023-04-04T05:21:25.648Z,2.83
2023-04-04T05:24:30.609Z,2.75
2023-04-04T05:27:34.944Z,2.20
2023-04-04T05:30:40.379Z,2.20
2023-04-04T05:34:08.295Z,3.13
2023-04-04T05:37:11.496Z,3.63
2023-04-04T05:40:14.734Z,4.30
2023-04-04T05:43:19.630Z,6.40
2023-04-04T05:46:35.074Z,2.15
2023-04-04T05:49:37.712Z,2.10
2023-04-04T05:52:40.530Z,2.08
2023-04-04T05:55:53.460Z,3.20
2023-04-04T05:58:58.792Z,2.47
2023-04-04T06:02:04.537Z,2.30
2023-04-04T06:05:08.972Z,2.13
2023-04-04T06:08:14.782Z,2.07
2023-04-04T06:11:17.431Z,1.17
2023-04-04T06:14:20.565Z,1.38
2023-04-04T06:17:24.465Z,3.00
2023-04-04T06:20:27.058Z,1.67
2023-04-04T06:23:29.644Z,1.80
2023-04-04T06:26:32.446Z,2.60
2023-04-04T06:29:37.448Z,1.70
2023-04-04T06:32:42.484Z,1.73
2023-04-04T06:35:49.144Z,1.58
2023-04-04T06:38:52.761Z,1.80
2023-04-04T06:41:57.504Z,1.30
2023-04-04T06:45:03.910Z,1.47
2023-04-04T06:48:06.611Z,1.48
2023-04-04T06:51:09.659Z,1.10
2023-04-04T06:54:15.471Z,1.05
2023-04-04T06:57:18.356Z,0.90
2023-04-04T07:00:21.852Z,1.10
2023-04-04T07:03:25.050Z,1.23
2023-04-04T07:06:29.779Z,1.33
2023-04-04T07:09:32.347Z,1.80
2023-04-04T07:12:35.157Z,1.60
2023-04-04T07:15:38.375Z,1.30
2023-04-04T07:18:41.562Z,0.85
2023-04-04T07:21:45.438Z,0.93
2023-04-04T07:24:48.683Z,1.33
2023-04-04T07:27:59.627Z,1.52
2023-04-04T07:31:08.544Z,2.08
2023-04-04T07:34:11.079Z,1.10
2023-04-04T07:37:15.233Z,0.82
2023-04-04T07:40:18.393Z,1.73
2023-04-04T07:43:21.542Z,2.45
2023-04-04T07:46:24.210Z,3.35
2023-04-04T07:49:26.766Z,2.65
2023-04-04T07:52:29.468Z,2.33
2023-04-04T07:55:32.011Z,1.73
2023-04-04T07:58:35.564Z,2.67
2023-04-04T08:01:38.131Z,1.98
2023-04-04T08:04:41.181Z,2.17
2023-04-04T08:07:43.824Z,2.22
2023-04-04T08:10:49.329Z,1.10
2023-04-04T08:13:51.983Z,0.98
2023-04-04T08:16:54.719Z,0.98
2023-04-04T08:19:57.291Z,2.15
2023-04-04T08:22:59.975Z,1.60
2023-04-04T08:26:02.739Z,1.43
2023-04-04T08:29:05.263Z,1.08
2023-04-04T08:32:08.245Z,1.48
2023-04-04T08:35:11.397Z,1.63
2023-04-04T08:38:13.893Z,2.45
2023-04-04T08:41:17.035Z,0.80
2023-04-04T08:44:22.333Z,3.00
2023-04-04T08:47:26.761Z,1.95
2023-04-04T08:50:30.662Z,1.02
2023-04-04T08:53:34.501Z,1.40
2023-04-04T08:56:37.625Z,0.80
2023-04-04T08:59:40.466Z,0.98
2023-04-04T09:03:13.369Z,1.23
2023-04-04T09:06:19.345Z,1.63
2023-04-04T09:09:22.939Z,1.98
2023-04-04T09:12:26.340Z,1.07
2023-04-04T09:15:29.834Z,1.08
2023-04-04T09:18:32.434Z,1.23
2023-04-04T09:21:37.508Z,1.30
2023-04-04T09:24:41.795Z,1.35
2023-04-04T09:27:49.412Z,1.53
2023-04-04T09:30:52.968Z,1.20
2023-04-04T09:33:58.534Z,1.38
2023-04-04T09:37:03.204Z,1.50
2023-04-04T09:40:15.214Z,1.20
2023-04-04T09:43:19.592Z,2.17
2023-04-04T09:46:22.333Z,2.22
2023-04-04T09:49:24.967Z,2.00
2023-04-04T09:52:28.012Z,0.85
2023-04-04T09:55:36.604Z,1.80
2023-04-04T09:58:44.230Z,1.30
2023-04-04T10:01:51.476Z,1.02
2023-04-04T10:05:05.208Z,1.08
2023-04-04T10:08:18.855Z,1.88
2023-04-04T10:11:30.932Z,1.40
2023-04-04T10:14:35.291Z,1.50
2023-04-04T10:17:57.201Z,0.77
2023-04-04T10:21:14.622Z,0.88
2023-04-04T10:24:19.333Z,0.98
2023-04-04T10:27:22.296Z,1.35
2023-04-04T10:30:25.210Z,1.50
2023-04-04T10:33:37.514Z,1.30
2023-04-04T10:37:10.041Z,1.88
2023-04-04T10:40:17.470Z,1.40
2023-04-04T10:43:27.259Z,1.20
2023-04-04T10:46:32.117Z,1.20
2023-04-04T10:49:36.856Z,1.20
2023-04-04T10:52:44.227Z,1.50
2023-04-04T10:55:47.578Z,1.60
2023-04-04T10:58:50.778Z,1.50
2023-04-04T11:02:02.522Z,1.60
2023-04-04T11:05:29.397Z,1.50
2023-04-04T11:08:35.622Z,1.88
2023-04-04T11:12:08.317Z,1.50
2023-04-04T11:15:13.213Z,1.40
2023-04-04T11:18:31.487Z,1.67
2023-04-04T11:21:36.194Z,1.23
2023-04-04T11:24:43.890Z,1.10
2023-04-04T11:27:46.587Z,1.08
2023-04-04T11:31:18.661Z,1.20
2023-04-04T11:34:32.569Z,0.93
2023-04-04T11:38:04.094Z,1.40
2023-04-04T11:41:08.074Z,1.25
2023-04-04T11:44:11.814Z,1.75
2023-04-04T11:47:14.383Z,1.52
2023-04-04T11:50:21.771Z,1.07
2023-04-04T11:53:24.242Z,1.40
2023-04-04T11:56:27.457Z,1.20
2023-04-04T11:59:31.494Z,1.15
2023-04-04T12:02:40.464Z,1.92
2023-04-04T12:05:44.475Z,1.60
2023-04-04T12:08:48.242Z,2.03
2023-04-04T12:11:51.794Z,1.20
2023-04-04T12:15:06.181Z,1.15
2023-04-04T12:18:22.441Z,1.50
2023-04-04T12:21:25.681Z,1.90
2023-04-04T12:24:28.491Z,1.88
2023-04-04T12:27:31.272Z,1.50
2023-04-04T12:30:34.785Z,1.40
2023-04-04T12:33:38.152Z,1.77
2023-04-04T12:36:41.443Z,1.30
2023-04-04T12:39:49.534Z,1.80
2023-04-04T12:42:53.124Z,1.58
2023-04-04T12:45:58.128Z,1.38
2023-04-04T12:49:00.945Z,1.70
2023-04-04T12:52:05.556Z,1.87
2023-04-04T12:55:10.119Z,1.50
2023-04-04T12:58:13.058Z,1.50
2023-04-04T13:01:17.460Z,1.25
2023-04-04T13:04:21.541Z,1.45
2023-04-04T13:07:32.487Z,1.50
2023-04-04T13:11:07.083Z,1.98
2023-04-04T13:14:13.098Z,1.45
2023-04-04T13:17:17.584Z,1.08
2023-04-04T13:20:22.190Z,1.20
2023-04-04T13:23:24.991Z,1.83
2023-04-04T13:26:27.875Z,1.30
2023-04-04T13:29:30.561Z,1.48
2023-04-04T13:32:33.535Z,1.27
2023-04-04T13:35:36.562Z,1.40
2023-04-04T13:38:39.326Z,1.23
2023-04-04T13:41:41.827Z,1.52
2023-04-04T13:44:44.336Z,1.52
2023-04-04T13:47:47.141Z,1.42
2023-04-04T13:50:54.096Z,1.40
2023-04-04T13:53:56.870Z,1.20
2023-04-04T13:56:59.404Z,1.40
2023-04-04T14:00:02.344Z,1.63
2023-04-04T14:03:12.796Z,1.55
2023-04-04T14:06:15.589Z,2.13
2023-04-04T14:09:18.909Z,2.20
2023-04-04T14:12:21.450Z,1.52
2023-04-04T14:15:24.325Z,2.10
2023-04-04T14:18:27.251Z,1.98
2023-04-04T14:21:29.871Z,1.60
2023-04-04T14:24:32.461Z,1.70
2023-04-04T14:27:35.012Z,1.63
2023-04-04T14:30:37.542Z,1.70
2023-04-04T14:33:40.096Z,1.40
2023-04-04T14:36:42.642Z,1.58
2023-04-04T14:39:45.305Z,1.70
2023-04-04T14:42:47.985Z,2.25
2023-04-04T14:45:51.125Z,2.00
2023-04-04T14:48:54.001Z,2.50
2023-04-04T14:51:56.759Z,2.47
2023-04-04T14:54:59.438Z,2.17
2023-04-04T14:58:03.199Z,2.22
2023-04-04T15:01:06.402Z,2.10
2023-04-04T15:04:09.403Z,1.73
2023-04-04T15:07:11.915Z,2.33
2023-04-04T15:10:14.534Z,1.90
2023-04-04T15:13:17.188Z,2.10
2023-04-04T15:16:19.719Z,2.42
2023-04-04T15:19:22.291Z,2.90
2023-04-04T15:22:25.124Z,2.58
2023-04-04T15:25:28.830Z,1.47
2023-04-04T15:28:31.633Z,2.13
2023-04-04T15:31:34.257Z,1.77
2023-04-04T15:34:36.837Z,1.40
2023-04-04T15:37:39.376Z,1.73
2023-04-04T15:40:42.217Z,1.53
2023-04-04T15:43:44.946Z,1.65
2023-04-04T15:46:47.436Z,2.03
2023-04-04T15:49:49.965Z,1.80
2023-04-04T15:52:52.504Z,2.20
2023-04-04T15:55:55.216Z,2.10
2023-04-04T15:58:58.596Z,2.55
2023-04-04T16:02:01.222Z,1.92
2023-04-04T16:05:04.997Z,4.55
2023-04-04T16:08:07.575Z,3.42
2023-04-04T16:11:10.139Z,2.83
2023-04-04T16:14:13.752Z,8.13
2023-04-04T16:17:16.876Z,2.03
2023-04-04T16:20:20.121Z,2.00
2023-04-04T16:23:22.580Z,2.42
2023-04-04T16:26:25.751Z,3.00
2023-04-04T16:29:31.224Z,9.60
2023-04-04T16:32:34.566Z,51.42
2023-04-04T16:35:38.481Z,28.88
2023-04-04T16:38:41.323Z,5.07
2023-04-04T16:41:44.009Z,3.57
2023-04-04T16:44:47.420Z,2.78
2023-04-04T16:47:50.161Z,3.28
2023-04-04T16:50:54.696Z,2.38
2023-04-04T16:53:57.401Z,3.45
2023-04-04T16:57:00.476Z,3.77
2023-04-04T17:00:05.905Z,3.92
2023-04-04T17:03:08.410Z,4.03
2023-04-04T17:06:11.058Z,2.97
2023-04-04T17:09:14.075Z,2.20
2023-04-04T17:12:17.331Z,2.47
2023-04-04T17:15:19.935Z,2.85
2023-04-04T17:18:23.015Z,2.55
2023-04-04T17:21:26.365Z,3.30
2023-04-04T17:24:28.949Z,2.47
2023-04-04T17:27:31.643Z,2.17
2023-04-04T17:30:34.469Z,2.78
2023-04-04T17:33:37.051Z,2.40
2023-04-04T17:36:39.822Z,3.33
2023-04-04T17:39:45.433Z,2.72
2023-04-04T17:42:48.199Z,2.10
2023-04-04T17:45:50.928Z,2.30
2023-04-04T17:48:54.656Z,2.45
2023-04-04T17:51:57.302Z,2.20
2023-04-04T17:55:00.005Z,1.83
2023-04-04T17:58:02.500Z,2.20
2023-04-04T18:01:06.009Z,1.95
2023-04-04T18:04:09.586Z,2.10
2023-04-04T18:07:12.416Z,2.42
2023-04-04T18:10:17.388Z,2.70
2023-04-04T18:13:20.626Z,3.20
2023-04-04T18:16:23.539Z,2.40
2023-04-04T18:19:26.534Z,1.50
2023-04-04T18:22:29.861Z,1.95
2023-04-04T18:25:36.116Z,2.10
2023-04-04T18:28:38.794Z,1.10
2023-04-04T18:31:41.547Z,1.73
2023-04-04T18:34:44.261Z,1.15
2023-04-04T18:37:46.852Z,1.17
2023-04-04T18:40:50.149Z,1.30
2023-04-04T18:43:53.436Z,1.23
2023-04-04T18:46:58.754Z,1.38
2023-04-04T18:50:01.630Z,1.67
2023-04-04T18:53:04.606Z,1.02
2023-04-04T18:56:07.504Z,1.35
2023-04-04T18:59:10.109Z,1.50
2023-04-04T19:02:13.227Z,1.42
2023-04-04T19:05:22.910Z,3.25
2023-04-04T19:08:26.514Z,3.30
2023-04-04T19:11:32.220Z,2.60
2023-04-04T19:14:35.198Z,6.07
2023-04-04T19:17:37.842Z,11.98
2023-04-04T19:20:43.545Z,6.07
2023-04-04T19:23:47.231Z,4.03
2023-04-04T19:26:49.978Z,5.70
2023-04-04T19:29:54.893Z,4.23
2023-04-04T19:32:57.614Z,6.95
2023-04-04T19:36:08.080Z,8.40
2023-04-04T19:39:11.443Z,5.70
2023-04-04T19:42:14.733Z,9.23
2023-04-04T19:45:47.753Z,6.50
2023-04-04T19:48:55.223Z,6.10
2023-04-04T19:52:01.046Z,14.55
2023-04-04T19:55:09.610Z,15.52
2023-04-04T19:58:21.839Z,13.57
2023-04-04T20:01:30.441Z,17.70
2023-04-04T20:04:33.196Z,13.73
2023-04-04T20:07:42.212Z,15.20
2023-04-04T20:10:45.519Z,32.63
2023-04-04T20:13:49.982Z,23.45
2023-04-04T20:16:53.838Z,21.35
2023-04-04T20:19:56.653Z,14.35
2023-04-04T20:22:59.733Z,11.03
2023-04-04T20:26:07.019Z,3.83
2023-04-04T20:29:17.967Z,4.43
2023-04-04T20:32:20.757Z,3.72
2023-04-04T20:35:27.981Z,4.17
2023-04-04T20:38:30.913Z,4.22
2023-04-04T20:41:33.434Z,4.43
2023-04-04T20:44:36.323Z,5.43
2023-04-04T20:47:46.341Z,5.13
2023-04-04T20:50:49.223Z,4.80
2023-04-04T20:53:53.281Z,4.30
2023-04-04T20:56:57.250Z,3.20
2023-04-04T20:59:59.930Z,3.92
2023-04-04T21:03:42.932Z,3.85
2023-04-04T21:06:45.474Z,3.97
2023-04-04T21:09:48.049Z,4.97
2023-04-04T21:12:51.857Z,3.65
2023-04-04T21:16:01.233Z,3.08
2023-04-04T21:19:04.845Z,3.53
2023-04-04T21:22:07.391Z,3.33
2023-04-04T21:25:38.517Z,3.33
2023-04-04T21:28:45.591Z,2.28
2023-04-04T21:31:50.637Z,2.55
2023-04-04T21:34:53.172Z,2.97
2023-04-04T21:37:55.774Z,2.28
2023-04-04T21:41:07.312Z,2.83
2023-04-04T21:44:10.727Z,2.88
2023-04-04T21:47:14.661Z,2.77
2023-04-04T21:50:18.416Z,2.67
2023-04-04T21:53:22.338Z,3.13
2023-04-04T21:56:27.620Z,3.23
2023-04-04T21:59:30.260Z,3.30
2023-04-04T22:02:32.909Z,3.13
2023-04-04T22:05:38.999Z,3.78
2023-04-04T22:08:42.554Z,3.70
2023-04-04T22:11:45.108Z,3.43
2023-04-04T22:14:50.555Z,3.05
2023-04-04T22:17:54.986Z,3.15
2023-04-04T22:21:02.955Z,3.90
2023-04-04T22:24:06.335Z,4.18
2023-04-04T22:27:08.935Z,3.00
2023-04-04T22:30:11.870Z,3.80
2023-04-04T22:33:14.749Z,3.43
2023-04-04T22:36:17.681Z,3.20
2023-04-04T22:39:22.854Z,3.05
2023-04-04T22:42:25.520Z,3.20
2023-04-04T22:45:30.245Z,2.40
2023-04-04T22:48:38.668Z,2.75
2023-04-04T22:51:45.394Z,2.83
2023-04-04T22:54:48.343Z,3.10
2023-04-04T22:57:51.198Z,3.07
2023-04-04T23:00:55.997Z,2.67
2023-04-04T23:03:58.863Z,2.33
2023-04-04T23:07:01.478Z,2.70
2023-04-04T23:10:05.463Z,2.67
2023-04-04T23:13:11.547Z,3.03
2023-04-04T23:16:14.157Z,2.90
2023-04-04T23:19:17.059Z,3.28
2023-04-04T23:22:19.828Z,2.83
2023-04-04T23:25:22.344Z,2.45
2023-04-04T23:28:27.116Z,2.72
2023-04-04T23:31:29.791Z,2.92
2023-04-04T23:34:32.356Z,3.20
2023-04-04T23:37:34.896Z,3.42
2023-04-04T23:40:39.513Z,3.15
2023-04-04T23:43:43.265Z,3.37
2023-04-04T23:46:46.723Z,3.23
2023-04-04T23:49:49.318Z,3.45
2023-04-04T23:52:51.909Z,3.08
2023-04-04T23:55:55.639Z,2.83
2023-04-04T23:58:58.286Z,3.00
